ADDS METAR Data INFO
IDs: Format: Raw Decoded Include TAF

Data at: 0918 UTC 17 Oct 2017

KBVO 170853Z AUTO 00000KT 10SM CLR 04/03 A3026 RMK AO2 SLP242 T00440033 58008
KBVO 170753Z AUTO 00000KT 10SM CLR 04/03 A3028 RMK AO2 SLP250 T00440033
KBVO 170653Z AUTO 00000KT 10SM CLR 04/03 A3029 RMK AO2 SLP251 T00390033
KBVO 170553Z AUTO 00000KT 10SM CLR 05/04 A3028 RMK AO2 SLP251 T00500039 10117 20044 402110022 58005
KBVO 170453Z AUTO 00000KT 10SM CLR 05/04 A3029 RMK AO2 SLP254 T00500039
KBVO 170353Z AUTO 00000KT 10SM CLR 06/05 A3030 RMK AO2 SLP259 T00610050
KBVO 170253Z AUTO 00000KT 10SM CLR 07/05 A3030 RMK AO2 SLP259 T00670050 53002
KBVO 170153Z AUTO 00000KT 10SM CLR 08/06 A3030 RMK AO2 SLP259 T00780056
KBVO 170053Z AUTO 00000KT 10SM CLR 09/07 A3030 RMK AO2 SLP258 T00940067
KBVO 162353Z AUTO 21003KT 10SM CLR 12/07 A3030 RMK AO2 SLP258 T01170072 10211 20117 56010
KBVO 162253Z AUTO 14006KT 10SM CLR 19/03 A3030 RMK AO2 SLP256 T01890028
KBVO 162153Z AUTO 18005KT 10SM CLR 20/02 A3031 RMK AO2 SLP260 T02000022
KBVO 162053Z AUTO VRB05KT 10SM CLR 21/02 A3033 RMK AO2 SLP265 T02060022 56034
KBVO 161953Z AUTO VRB04KT 10SM CLR 21/02 A3035 RMK AO2 SLP275 T02060022
KBVO 161853Z AUTO VRB04KT 10SM CLR 21/02 A3039 RMK AO2 SLP286 T02060022
KBVO 161753Z AUTO VRB05KT 10SM CLR 19/02 A3043 RMK AO2 SLP300 T01940022 10194 20022 58010
KBVO 161653Z AUTO 14005KT 10SM CLR 18/03 A3045 RMK AO2 SLP308 T01780028
KBVO 161553Z AUTO 18004KT 10SM CLR 16/05 A3046 RMK AO2 SLP311 T01560050
KBVO 161453Z AUTO 00000KT 10SM CLR 12/08 A3046 RMK AO2 SLP311 T01170078 50005
KBVO 161353Z AUTO 00000KT 10SM CLR 07/05 A3046 RMK AO2 SLP313 T00670050
KBVO 161253Z AUTO 00000KT 10SM CLR 03/02 A3045 RMK AO2 SLP309 T00330022
KBVO 161153Z AUTO 00000KT 10SM CLR 03/02 A3044 RMK AO2 SLP307 T00280017 10056 20022 52007
KBVO 161053Z AUTO 00000KT 10SM CLR 03/02 A3044 RMK AO2 SLP304 T00280017
KBVO 160953Z AUTO 00000KT 10SM CLR 03/03 A3043 RMK AO2 SLP301 T00330028
KBVO 160853Z AUTO 00000KT 10SM CLR 04/03 A3042 RMK AO2 SLP297 T00390028 50001
KBVO 160753Z AUTO 00000KT 10SM CLR 04/03 A3043 RMK AO2 SLP300 T00440033
KBVO 160653Z AUTO 00000KT 10SM CLR 05/04 A3042 RMK AO2 SLP298 T00500039
KBVO 160553Z AUTO 00000KT 10SM CLR 06/04 A3042 RMK AO2 SLP296 T00560044 10139 20056 402000056 50006
KBVO 160453Z AUTO 00000KT 10SM CLR 06/04 A3042 RMK AO2 SLP297 T00560044
KBVO 160353Z AUTO 00000KT 10SM CLR 07/05 A3042 RMK AO2 SLP297 T00720050
KBVO 160253Z AUTO 00000KT 10SM CLR 08/05 A3040 RMK AO2 SLP291 T00780050 53015
KBVO 160153Z AUTO 00000KT 10SM CLR 08/05 A3038 RMK AO2 SLP285 T00830050
KBVO 160053Z AUTO 00000KT 10SM CLR 10/06 A3037 RMK AO2 SLP280 T01000056
KBVO 152353Z AUTO 00000KT 10SM CLR 14/04 A3036 RMK AO2 SLP275 T01390039 10200 20139 55001
KBVO 152253Z 00000KT 10SM CLR 17/02 A3035 RMK AO2 SLP273 T01670017
KBVO 152153Z 35008KT 320V020 10SM CLR 19/01 A3036 RMK AO2 SLP274 T01890011